createdAt,value
2019-05-15T00:00:38.449Z,53.88
2019-05-15T00:01:40.714Z,55.70
2019-05-15T00:02:38.773Z,56.16
2019-05-15T00:03:38.826Z,57.99
2019-05-15T00:04:38.233Z,56.84
2019-05-15T00:05:38.668Z,57.15
2019-05-15T00:06:36.106Z,55.38
2019-05-15T00:07:38.794Z,57.28
2019-05-15T00:08:38.444Z,55.24
2019-05-15T00:09:39.581Z,55.45
2019-05-15T00:10:39.068Z,56.22
2019-05-15T00:11:36.020Z,60.80
2019-05-15T00:12:36.140Z,58.92
2019-05-15T00:13:36.010Z,55.72
2019-05-15T00:14:35.984Z,55.18
2019-05-15T00:15:35.980Z,55.78
2019-05-15T00:16:38.424Z,56.62
2019-05-15T00:17:36.054Z,56.99
2019-05-15T00:18:35.946Z,56.74
2019-05-15T00:19:35.932Z,54.25
2019-05-15T00:20:36.035Z,54.96
2019-05-15T00:21:38.077Z,57.16
2019-05-15T00:22:35.917Z,56.08
2019-05-15T00:23:38.263Z,57.23
2019-05-15T00:24:38.035Z,56.85
2019-05-15T00:25:35.869Z,58.28
2019-05-15T00:26:35.857Z,56.75
2019-05-15T00:27:38.307Z,56.30
2019-05-15T00:28:35.830Z,52.42
2019-05-15T00:29:38.189Z,56.51
2019-05-15T00:30:38.467Z,56.71
2019-05-15T00:31:35.800Z,56.52
2019-05-15T00:32:35.806Z,57.51
2019-05-15T00:33:35.777Z,58.08
2019-05-15T00:34:37.793Z,58.40
2019-05-15T00:35:35.763Z,57.25
2019-05-15T00:36:38.107Z,59.05
2019-05-15T00:37:38.102Z,57.47
2019-05-15T00:38:35.720Z,57.47
2019-05-15T00:39:35.739Z,58.21
2019-05-15T00:40:35.713Z,56.58
2019-05-15T00:41:49.926Z,57.90
2019-05-15T00:42:38.374Z,59.32
2019-05-15T00:43:35.692Z,57.56
2019-05-15T00:44:35.660Z,55.39
2019-05-15T00:45:35.649Z,55.36
2019-05-15T00:46:35.641Z,57.09
2019-05-15T00:47:35.645Z,56.77
2019-05-15T00:48:35.611Z,56.15
2019-05-15T00:49:38.050Z,58.08
2019-05-15T00:50:35.599Z,58.13
2019-05-15T00:51:35.579Z,56.22
2019-05-15T00:52:35.577Z,56.22
2019-05-15T00:53:35.585Z,55.12
2019-05-15T00:54:35.543Z,55.29
2019-05-15T00:55:37.878Z,55.38
2019-05-15T00:56:35.541Z,56.73
2019-05-15T00:57:35.515Z,57.84
2019-05-15T00:58:35.512Z,57.91
2019-05-15T00:59:35.490Z,53.19
2019-05-15T01:00:38.031Z,57.19
2019-05-15T01:01:38.007Z,56.85
2019-05-15T01:02:35.458Z,57.91
2019-05-15T01:03:35.460Z,57.45
2019-05-15T01:04:35.450Z,57.79
2019-05-15T01:05:35.427Z,55.72
2019-05-15T01:06:35.413Z,57.11
2019-05-15T01:07:35.404Z,56.53
2019-05-15T01:08:35.390Z,55.23
2019-05-15T01:09:35.392Z,53.78
2019-05-15T01:10:35.368Z,56.54
2019-05-15T01:11:35.364Z,57.77
2019-05-15T01:12:35.360Z,56.76
2019-05-15T01:13:35.340Z,56.37
2019-05-15T01:14:35.330Z,54.13
2019-05-15T01:15:35.334Z,55.86
2019-05-15T01:16:35.310Z,56.62
2019-05-15T01:17:35.294Z,56.40
2019-05-15T01:18:35.286Z,55.48
2019-05-15T01:19:35.271Z,58.13
2019-05-15T01:20:35.264Z,55.05
2019-05-15T01:21:35.285Z,55.27
2019-05-15T01:22:35.238Z,56.24
2019-05-15T01:23:35.230Z,58.67
2019-05-15T01:24:35.215Z,57.52
2019-05-15T01:25:35.205Z,57.09
2019-05-15T01:26:35.208Z,54.78
2019-05-15T01:27:35.210Z,58.60
2019-05-15T01:28:35.170Z,56.72
2019-05-15T01:29:43.776Z,56.27
2019-05-15T01:30:36.164Z,57.12
2019-05-15T01:31:35.160Z,55.42
2019-05-15T01:32:35.135Z,56.56
2019-05-15T01:33:35.116Z,56.71
2019-05-15T01:34:35.124Z,57.51
2019-05-15T01:35:35.093Z,56.50
2019-05-15T01:36:35.080Z,55.84
2019-05-15T01:37:35.081Z,55.17
2019-05-15T01:38:35.080Z,57.41
2019-05-15T01:39:35.046Z,56.89
2019-05-15T01:40:35.063Z,57.31
2019-05-15T01:41:35.052Z,55.78
2019-05-15T01:42:35.061Z,57.05
2019-05-15T01:43:35.012Z,57.39
2019-05-15T01:44:34.998Z,56.31
2019-05-15T01:45:35.061Z,58.12
2019-05-15T01:46:35.001Z,56.60
2019-05-15T01:47:34.992Z,55.24
2019-05-15T01:48:34.955Z,54.95
2019-05-15T01:49:34.947Z,54.89
2019-05-15T01:50:34.931Z,56.07
2019-05-15T01:51:34.931Z,55.33
2019-05-15T01:52:34.917Z,54.43
2019-05-15T01:53:34.900Z,55.14
2019-05-15T01:54:34.889Z,58.62
2019-05-15T01:55:34.892Z,56.20
2019-05-15T01:56:34.868Z,56.86
2019-05-15T01:57:34.857Z,55.27
2019-05-15T01:58:34.841Z,55.27
2019-05-15T01:59:34.831Z,52.92
2019-05-15T02:00:34.836Z,55.78
2019-05-15T02:01:34.831Z,53.74
2019-05-15T02:02:34.804Z,56.49
2019-05-15T02:03:34.790Z,56.92
2019-05-15T02:04:34.807Z,56.20
2019-05-15T02:05:34.769Z,56.75
2019-05-15T02:06:34.763Z,53.40
2019-05-15T02:07:34.743Z,55.38
2019-05-15T02:08:34.740Z,53.83
2019-05-15T02:09:34.721Z,56.93
2019-05-15T02:10:34.712Z,55.53
2019-05-15T02:11:34.707Z,54.10
2019-05-15T02:12:34.738Z,57.01
2019-05-15T02:13:34.679Z,57.02
2019-05-15T02:14:34.663Z,56.05
2019-05-15T02:15:34.659Z,56.02
2019-05-15T02:16:34.643Z,55.87
2019-05-15T02:17:34.636Z,54.51
2019-05-15T02:18:34.622Z,55.41
2019-05-15T02:19:34.611Z,54.53
2019-05-15T02:20:34.611Z,57.42
2019-05-15T02:21:34.587Z,55.21
2019-05-15T02:22:34.579Z,55.42
2019-05-15T02:23:34.573Z,54.26
2019-05-15T02:24:34.552Z,56.13
2019-05-15T02:25:34.547Z,55.20
2019-05-15T02:26:34.530Z,54.12
2019-05-15T02:27:34.528Z,49.71
2019-05-15T02:28:34.513Z,55.58
2019-05-15T02:29:34.510Z,54.60
2019-05-15T02:30:34.625Z,55.80
2019-05-15T02:31:34.475Z,53.30
2019-05-15T02:32:34.487Z,54.10
2019-05-15T02:33:34.459Z,54.14
2019-05-15T02:34:34.455Z,54.58
2019-05-15T02:35:34.469Z,53.75
2019-05-15T02:36:34.430Z,54.60
2019-05-15T02:37:34.415Z,50.31
2019-05-15T02:38:34.397Z,55.00
2019-05-15T02:39:34.396Z,54.38
2019-05-15T02:40:34.390Z,52.23
2019-05-15T02:41:34.370Z,52.75
2019-05-15T02:42:34.357Z,52.97
2019-05-15T02:43:34.349Z,54.43
2019-05-15T02:44:34.357Z,53.59
2019-05-15T02:45:37.725Z,54.16
2019-05-15T02:46:35.316Z,53.07
2019-05-15T02:47:34.298Z,53.85
2019-05-15T02:48:34.289Z,52.62
2019-05-15T02:49:34.282Z,54.86
2019-05-15T02:50:34.270Z,53.02
2019-05-15T02:51:34.284Z,52.99
2019-05-15T02:52:34.246Z,53.98
2019-05-15T02:53:34.308Z,52.89
2019-05-15T02:54:34.236Z,53.07
2019-05-15T02:55:34.218Z,52.65
2019-05-15T02:56:34.214Z,53.54
2019-05-15T02:57:34.207Z,53.83
2019-05-15T02:58:34.203Z,51.68
2019-05-15T02:59:34.179Z,54.42
2019-05-15T03:00:44.138Z,52.71
2019-05-15T03:01:35.159Z,54.08
2019-05-15T03:02:34.141Z,52.84
2019-05-15T03:03:34.158Z,52.32
2019-05-15T03:04:34.112Z,51.94
2019-05-15T03:05:34.135Z,53.62
2019-05-15T03:06:34.104Z,53.88
2019-05-15T03:07:34.082Z,50.93
2019-05-15T03:08:34.073Z,53.15
2019-05-15T03:09:34.070Z,52.64
2019-05-15T03:10:34.054Z,51.95
2019-05-15T03:11:34.051Z,53.53
2019-05-15T03:12:34.038Z,53.47
2019-05-15T03:13:34.019Z,53.96
2019-05-15T03:14:34.020Z,54.44
2019-05-15T03:15:33.999Z,52.04
2019-05-15T03:16:33.988Z,53.05
2019-05-15T03:17:33.978Z,51.67
2019-05-15T03:18:33.962Z,50.48
2019-05-15T03:19:33.953Z,53.38
2019-05-15T03:20:33.947Z,52.75
2019-05-15T03:21:33.931Z,53.79
2019-05-15T03:22:33.923Z,51.82
2019-05-15T03:23:33.911Z,53.78
2019-05-15T03:24:33.899Z,48.53
2019-05-15T03:25:33.907Z,51.33
2019-05-15T03:26:33.890Z,51.62
2019-05-15T03:27:34.905Z,51.37
2019-05-15T03:28:33.859Z,50.97
2019-05-15T03:29:33.842Z,50.27
2019-05-15T03:31:02.586Z,50.76
2019-05-15T03:31:50.271Z,48.30
2019-05-15T03:32:43.978Z,48.44
2019-05-15T03:33:36.939Z,48.65
2019-05-15T03:34:38.710Z,48.89
2019-05-15T03:35:34.797Z,48.95
2019-05-15T03:36:33.782Z,49.23
2019-05-15T03:37:34.357Z,47.88
2019-05-15T03:38:33.747Z,50.01
2019-05-15T03:39:33.725Z,46.88
2019-05-15T03:40:33.716Z,49.81
2019-05-15T03:41:33.712Z,47.82
2019-05-15T03:42:33.697Z,48.48
2019-05-15T03:43:33.717Z,47.79
2019-05-15T03:44:33.677Z,48.99
2019-05-15T03:45:33.666Z,46.46
2019-05-15T03:46:33.659Z,46.08
2019-05-15T03:47:33.647Z,46.89
2019-05-15T03:48:33.669Z,49.25
2019-05-15T03:49:33.618Z,48.84
2019-05-15T03:50:33.612Z,47.05
2019-05-15T03:51:33.604Z,46.97
2019-05-15T03:52:33.591Z,47.21
2019-05-15T03:53:33.578Z,45.90
2019-05-15T03:54:33.576Z,49.47
2019-05-15T03:55:33.554Z,44.59
2019-05-15T03:56:33.593Z,49.64
2019-05-15T03:57:33.541Z,44.90
2019-05-15T03:58:33.526Z,44.89
2019-05-15T03:59:33.541Z,45.83
2019-05-15T04:00:33.530Z,48.11
2019-05-15T04:01:37.918Z,47.16
2019-05-15T04:02:34.482Z,45.08
2019-05-15T04:03:33.463Z,46.48
2019-05-15T04:04:33.457Z,46.16
2019-05-15T04:05:33.497Z,44.39
2019-05-15T04:06:33.436Z,43.38
2019-05-15T04:07:33.423Z,43.52
2019-05-15T04:08:33.413Z,46.30
2019-05-15T04:09:33.408Z,44.03
2019-05-15T04:10:33.396Z,43.79
2019-05-15T04:11:33.400Z,43.19
2019-05-15T04:12:33.371Z,43.81
2019-05-15T04:13:33.352Z,42.05
2019-05-15T04:14:33.352Z,41.70
2019-05-15T04:15:33.337Z,44.09
2019-05-15T04:16:33.327Z,46.19
2019-05-15T04:17:33.329Z,45.34
2019-05-15T04:18:33.310Z,43.95
2019-05-15T04:19:33.288Z,44.97
2019-05-15T04:20:33.327Z,42.57
2019-05-15T04:21:33.291Z,42.88
2019-05-15T04:22:33.274Z,42.12
2019-05-15T04:23:33.241Z,39.15
2019-05-15T04:24:33.238Z,40.25
2019-05-15T04:25:33.230Z,42.81
2019-05-15T04:26:33.237Z,43.00
2019-05-15T04:27:33.210Z,38.78
2019-05-15T04:28:33.214Z,41.50
2019-05-15T04:29:33.174Z,39.58
2019-05-15T04:30:33.169Z,40.79
2019-05-15T04:31:50.398Z,43.85
2019-05-15T04:32:34.165Z,43.52
2019-05-15T04:33:33.149Z,40.72
2019-05-15T04:34:33.121Z,42.23
2019-05-15T04:35:33.173Z,41.62
2019-05-15T04:36:33.117Z,40.15
2019-05-15T04:37:33.110Z,43.76
2019-05-15T04:38:33.098Z,41.18
2019-05-15T04:39:33.123Z,40.18
2019-05-15T04:40:33.055Z,37.50
2019-05-15T04:41:33.052Z,40.08
2019-05-15T04:42:33.050Z,41.18
2019-05-15T04:43:41.284Z,43.45
2019-05-15T04:44:35.008Z,42.89
2019-05-15T04:45:35.188Z,42.54
2019-05-15T04:46:32.996Z,43.61
2019-05-15T04:47:32.992Z,43.37
2019-05-15T04:48:32.977Z,44.08
2019-05-15T04:49:32.974Z,43.09
2019-05-15T04:50:32.956Z,42.36
2019-05-15T04:51:32.937Z,43.76
2019-05-15T04:52:32.937Z,42.34
2019-05-15T04:53:33.488Z,45.42
2019-05-15T04:54:32.943Z,43.84
2019-05-15T04:55:32.903Z,44.19
2019-05-15T04:56:32.891Z,43.42
2019-05-15T04:57:34.267Z,45.31
2019-05-15T04:58:32.859Z,43.26
2019-05-15T04:59:32.858Z,44.66
2019-05-15T05:00:33.255Z,41.44
2019-05-15T05:01:32.831Z,44.39
2019-05-15T05:02:32.836Z,42.14
2019-05-15T05:03:34.655Z,41.26
2019-05-15T05:04:32.795Z,41.13
2019-05-15T05:05:32.778Z,41.09
2019-05-15T05:06:32.771Z,41.72
2019-05-15T05:07:32.755Z,40.82
2019-05-15T05:08:32.773Z,41.92
2019-05-15T05:09:32.731Z,43.17
2019-05-15T05:10:32.721Z,42.15
2019-05-15T05:11:32.712Z,43.52
2019-05-15T05:12:32.702Z,42.77
2019-05-15T05:13:32.703Z,44.82
2019-05-15T05:14:32.677Z,40.63
2019-05-15T05:15:32.674Z,43.92
2019-05-15T05:16:32.651Z,39.09
2019-05-15T05:17:32.647Z,42.55
2019-05-15T05:18:32.641Z,42.41
2019-05-15T05:19:32.647Z,41.36
2019-05-15T05:20:32.610Z,40.40
2019-05-15T05:21:32.600Z,42.10
2019-05-15T05:22:32.597Z,38.99
2019-05-15T05:23:32.589Z,42.19
2019-05-15T05:24:32.572Z,38.22
2019-05-15T05:25:32.556Z,37.91
2019-05-15T05:26:32.563Z,42.32
2019-05-15T05:27:32.542Z,39.86
2019-05-15T05:28:32.527Z,42.40
2019-05-15T05:29:32.519Z,41.11
2019-05-15T05:30:32.522Z,39.47
2019-05-15T05:31:32.492Z,38.93
2019-05-15T05:32:35.229Z,42.68
2019-05-15T05:33:32.467Z,43.49
2019-05-15T05:34:32.456Z,44.56
2019-05-15T05:35:32.459Z,42.82
2019-05-15T05:36:32.432Z,43.65
2019-05-15T05:37:32.566Z,42.93
2019-05-15T05:38:32.412Z,43.58
2019-05-15T05:39:32.418Z,44.78
2019-05-15T05:40:32.394Z,43.91
2019-05-15T05:41:32.385Z,45.00
2019-05-15T05:42:32.364Z,40.45
2019-05-15T05:43:32.354Z,43.14
2019-05-15T05:44:32.341Z,43.00
2019-05-15T05:45:32.334Z,41.60
2019-05-15T05:46:32.333Z,42.94
2019-05-15T05:47:32.324Z,41.63
2019-05-15T05:48:32.303Z,44.41
2019-05-15T05:49:32.292Z,40.72
2019-05-15T05:50:32.295Z,40.56
2019-05-15T05:51:32.279Z,40.63
2019-05-15T05:52:32.272Z,40.19
2019-05-15T05:53:32.258Z,41.80
2019-05-15T05:54:32.249Z,39.30
2019-05-15T05:55:32.225Z,44.60
2019-05-15T05:56:32.207Z,44.64
2019-05-15T05:57:32.203Z,43.19
2019-05-15T05:58:32.219Z,42.12
2019-05-15T05:59:32.177Z,46.99
2019-05-15T06:00:32.166Z,43.33
2019-05-15T06:01:32.159Z,46.60
2019-05-15T06:02:43.647Z,45.43
2019-05-15T06:03:33.136Z,48.12
2019-05-15T06:04:32.144Z,49.58
2019-05-15T06:05:32.107Z,48.63
2019-05-15T06:06:32.102Z,49.95
2019-05-15T06:07:32.111Z,47.95
2019-05-15T06:08:32.113Z,47.66
2019-05-15T06:09:32.072Z,48.86
2019-05-15T06:10:32.097Z,46.62
2019-05-15T06:11:32.040Z,50.84
2019-05-15T06:12:32.043Z,48.82
2019-05-15T06:13:32.020Z,43.47
2019-05-15T06:14:32.020Z,47.94
2019-05-15T06:15:32.008Z,48.15
2019-05-15T06:16:31.993Z,47.09
2019-05-15T06:17:31.982Z,47.14
2019-05-15T06:18:31.970Z,50.75
2019-05-15T06:19:31.948Z,47.69
2019-05-15T06:20:31.950Z,50.82
2019-05-15T06:21:31.928Z,51.73
2019-05-15T06:22:31.917Z,50.87
2019-05-15T06:23:34.706Z,54.08
2019-05-15T06:24:31.894Z,52.98
2019-05-15T06:25:31.907Z,49.40
2019-05-15T06:26:31.886Z,47.81
2019-05-15T06:27:31.868Z,50.97
2019-05-15T06:28:31.873Z,50.08
2019-05-15T06:29:31.835Z,50.02
2019-05-15T06:30:31.829Z,50.01
2019-05-15T06:31:31.813Z,48.15
2019-05-15T06:32:31.824Z,54.14
2019-05-15T06:33:31.801Z,52.95
2019-05-15T06:34:31.783Z,53.01
2019-05-15T06:35:31.779Z,49.99
2019-05-15T06:36:31.760Z,50.25
2019-05-15T06:37:31.772Z,48.44
2019-05-15T06:38:31.743Z,50.96
2019-05-15T06:39:31.739Z,52.62
2019-05-15T06:40:32.353Z,50.78
2019-05-15T06:41:33.908Z,52.36
2019-05-15T06:42:31.704Z,49.47
2019-05-15T06:43:31.719Z,50.57
2019-05-15T06:44:31.681Z,49.16
2019-05-15T06:45:31.662Z,51.51
2019-05-15T06:46:31.649Z,55.34
2019-05-15T06:47:31.634Z,55.47
2019-05-15T06:48:31.656Z,55.17
2019-05-15T06:49:31.619Z,54.24
2019-05-15T06:50:31.604Z,50.67
2019-05-15T06:51:31.594Z,50.41
2019-05-15T06:52:31.577Z,56.01
2019-05-15T06:53:31.574Z,53.09
2019-05-15T06:54:31.572Z,52.77
2019-05-15T06:55:31.550Z,52.87
2019-05-15T06:56:31.532Z,54.70
2019-05-15T06:57:31.525Z,55.50
2019-05-15T06:58:31.524Z,54.69
2019-05-15T06:59:31.554Z,55.51
2019-05-15T07:00:31.535Z,56.06
2019-05-15T07:01:31.494Z,56.43
2019-05-15T07:02:31.473Z,56.53
2019-05-15T07:03:31.484Z,55.74
2019-05-15T07:04:31.452Z,56.42
2019-05-15T07:05:31.438Z,55.48
2019-05-15T07:06:31.436Z,50.52
2019-05-15T07:07:31.476Z,50.72
2019-05-15T07:08:31.438Z,57.18
2019-05-15T07:09:31.398Z,53.97
2019-05-15T07:10:31.430Z,56.80
2019-05-15T07:11:31.462Z,53.03
2019-05-15T07:12:31.363Z,58.09
2019-05-15T07:13:31.453Z,55.50
2019-05-15T07:14:31.337Z,57.73
2019-05-15T07:15:31.324Z,56.82
2019-05-15T07:16:31.319Z,59.52
2019-05-15T07:17:31.312Z,59.80
2019-05-15T07:18:31.294Z,60.33
2019-05-15T07:19:31.276Z,55.07
2019-05-15T07:20:31.886Z,55.98
2019-05-15T07:21:31.259Z,60.20
2019-05-15T07:22:31.254Z,55.96
2019-05-15T07:23:31.235Z,57.85
2019-05-15T07:24:31.230Z,53.36
2019-05-15T07:25:31.235Z,58.80
2019-05-15T07:26:31.205Z,58.89
2019-05-15T07:27:31.214Z,59.25
2019-05-15T07:28:31.201Z,58.16
2019-05-15T07:29:31.375Z,59.36
2019-05-15T07:30:31.159Z,57.52
2019-05-15T07:31:31.147Z,55.12
2019-05-15T07:32:31.140Z,54.50
2019-05-15T07:33:39.590Z,52.57
2019-05-15T07:34:32.116Z,56.64
2019-05-15T07:35:31.105Z,59.19
2019-05-15T07:36:31.092Z,56.01
2019-05-15T07:37:31.115Z,54.26
2019-05-15T07:38:31.072Z,58.22
2019-05-15T07:39:31.109Z,54.75
2019-05-15T07:40:31.050Z,53.31
2019-05-15T07:41:31.035Z,55.72
2019-05-15T07:42:31.026Z,59.81
2019-05-15T07:43:31.016Z,55.75
2019-05-15T07:44:31.010Z,58.18
2019-05-15T07:45:31.008Z,53.44
2019-05-15T07:46:30.980Z,55.17
2019-05-15T07:47:30.971Z,57.88
2019-05-15T07:48:30.959Z,58.42
2019-05-15T07:49:30.952Z,56.10
2019-05-15T07:50:31.081Z,58.53
2019-05-15T07:51:31.093Z,56.19
2019-05-15T07:52:30.978Z,52.78
2019-05-15T07:53:30.962Z,54.61
2019-05-15T07:54:30.914Z,54.44
2019-05-15T07:55:30.891Z,54.04
2019-05-15T07:56:30.876Z,55.51
2019-05-15T07:57:30.857Z,55.97
2019-05-15T07:58:30.850Z,56.46
2019-05-15T07:59:30.840Z,53.52
2019-05-15T08:00:30.842Z,57.74
2019-05-15T08:01:30.824Z,55.36
2019-05-15T08:02:30.836Z,57.15
2019-05-15T08:03:30.886Z,57.41
2019-05-15T08:04:33.098Z,54.51
2019-05-15T08:05:30.785Z,56.32
2019-05-15T08:06:30.763Z,57.07
2019-05-15T08:07:30.760Z,58.44
2019-05-15T08:08:30.750Z,57.21
2019-05-15T08:09:30.742Z,70.18
2019-05-15T08:10:30.722Z,63.46
2019-05-15T08:11:30.703Z,61.58
2019-05-15T08:12:30.692Z,66.97
2019-05-15T08:13:30.698Z,66.57
2019-05-15T08:14:30.711Z,67.03
2019-05-15T08:15:30.664Z,64.39
2019-05-15T08:16:30.647Z,64.53
2019-05-15T08:17:30.631Z,65.90
2019-05-15T08:18:30.646Z,65.87
2019-05-15T08:19:30.610Z,64.31
2019-05-15T08:20:30.608Z,66.60
2019-05-15T08:21:30.589Z,64.94
2019-05-15T08:22:30.637Z,63.28
2019-05-15T08:23:30.593Z,64.89
2019-05-15T08:24:30.569Z,63.14
2019-05-15T08:25:35.317Z,62.22
2019-05-15T08:26:30.531Z,61.82
2019-05-15T08:27:30.523Z,61.43
2019-05-15T08:28:30.595Z,58.56
2019-05-15T08:29:30.494Z,60.95
2019-05-15T08:30:30.482Z,59.66
2019-05-15T08:31:30.494Z,66.50
2019-05-15T08:32:30.561Z,65.40
2019-05-15T08:33:30.451Z,62.80
2019-05-15T08:34:30.551Z,62.56
2019-05-15T08:35:30.437Z,59.29
2019-05-15T08:36:31.317Z,64.35
2019-05-15T08:37:30.401Z,59.80
2019-05-15T08:38:30.393Z,56.87
2019-05-15T08:39:30.393Z,59.27
2019-05-15T08:40:31.253Z,61.07
2019-05-15T08:41:30.373Z,61.09
2019-05-15T08:42:32.190Z,64.56
2019-05-15T08:43:31.430Z,64.43
2019-05-15T08:44:31.297Z,66.12
2019-05-15T08:45:30.325Z,61.92
2019-05-15T08:46:30.302Z,65.95
2019-05-15T08:47:30.292Z,64.81
2019-05-15T08:48:32.801Z,66.34
2019-05-15T08:49:30.273Z,67.71
2019-05-15T08:50:30.302Z,67.50
2019-05-15T08:51:30.253Z,62.81
2019-05-15T08:52:30.265Z,63.38
2019-05-15T08:53:30.226Z,63.56
2019-05-15T08:54:30.232Z,60.13
2019-05-15T08:55:30.206Z,53.82
2019-05-15T08:56:30.196Z,58.49
2019-05-15T08:57:30.188Z,59.88
2019-05-15T08:58:30.187Z,58.45
2019-05-15T08:59:30.159Z,58.50
2019-05-15T09:00:30.146Z,58.19
2019-05-15T09:01:30.148Z,53.61
2019-05-15T09:02:30.129Z,62.01
2019-05-15T09:03:30.121Z,60.25
2019-05-15T09:04:34.635Z,58.08
2019-05-15T09:05:31.110Z,63.96
2019-05-15T09:06:30.092Z,63.89
2019-05-15T09:07:30.066Z,61.05
2019-05-15T09:08:30.069Z,62.22
2019-05-15T09:09:30.091Z,62.78
2019-05-15T09:10:30.032Z,60.00
2019-05-15T09:11:30.022Z,60.69
2019-05-15T09:12:30.035Z,59.18
2019-05-15T09:13:30.001Z,61.02
2019-05-15T09:14:29.994Z,55.83
2019-05-15T09:15:29.977Z,56.78
2019-05-15T09:16:29.968Z,57.02
2019-05-15T09:17:29.961Z,64.22
2019-05-15T09:18:29.968Z,64.42
2019-05-15T09:19:29.932Z,59.47
2019-05-15T09:20:29.949Z,60.91
2019-05-15T09:21:30.061Z,59.78
2019-05-15T09:22:29.918Z,56.20
2019-05-15T09:23:29.893Z,54.91
2019-05-15T09:24:29.874Z,61.25
2019-05-15T09:25:29.874Z,53.66
2019-05-15T09:26:29.880Z,55.30
2019-05-15T09:27:29.840Z,53.57
2019-05-15T09:28:29.887Z,57.97
2019-05-15T09:29:29.822Z,51.80
2019-05-15T09:30:29.828Z,56.94
2019-05-15T09:31:29.824Z,53.91
2019-05-15T09:32:29.783Z,57.81
2019-05-15T09:33:29.772Z,59.77
2019-05-15T09:34:46.350Z,56.23
2019-05-15T09:35:30.778Z,59.43
2019-05-15T09:36:29.742Z,57.30
2019-05-15T09:37:29.744Z,57.56
2019-05-15T09:38:29.722Z,58.39
2019-05-15T09:39:29.706Z,57.28
2019-05-15T09:40:42.515Z,58.19
2019-05-15T09:41:30.697Z,58.69
2019-05-15T09:42:29.684Z,55.00
2019-05-15T09:43:29.658Z,54.91
2019-05-15T09:44:29.652Z,59.95
2019-05-15T09:45:29.640Z,56.97
2019-05-15T09:46:29.636Z,56.28
2019-05-15T09:47:29.851Z,58.63
2019-05-15T09:48:29.618Z,55.93
2019-05-15T09:49:29.596Z,55.71
2019-05-15T09:50:29.595Z,50.90
2019-05-15T09:51:29.583Z,51.04
2019-05-15T09:52:30.170Z,55.84
2019-05-15T09:53:29.557Z,55.61
2019-05-15T09:54:29.586Z,56.19
2019-05-15T09:55:29.529Z,60.85
2019-05-15T09:56:29.529Z,56.84
2019-05-15T09:57:30.219Z,59.07
2019-05-15T09:58:30.286Z,57.26
2019-05-15T09:59:29.510Z,58.40
2019-05-15T10:00:29.598Z,55.68
2019-05-15T10:01:29.481Z,55.61
2019-05-15T10:02:29.467Z,52.73
2019-05-15T10:03:29.474Z,52.16
2019-05-15T10:04:29.435Z,57.25
2019-05-15T10:05:29.429Z,55.29
2019-05-15T10:06:29.407Z,56.49
2019-05-15T10:07:29.394Z,52.92
2019-05-15T10:08:29.470Z,57.70
2019-05-15T10:09:29.369Z,57.14
2019-05-15T10:10:29.369Z,52.95
2019-05-15T10:11:29.374Z,54.47
2019-05-15T10:12:34.442Z,52.31
2019-05-15T10:13:30.329Z,54.22
2019-05-15T10:14:29.718Z,56.33
2019-05-15T10:15:29.307Z,59.39
2019-05-15T10:16:29.325Z,56.83
2019-05-15T10:17:29.283Z,54.13
2019-05-15T10:18:29.269Z,58.48
2019-05-15T10:19:29.275Z,55.21
2019-05-15T10:20:29.304Z,47.96
2019-05-15T10:21:32.453Z,55.25
2019-05-15T10:22:29.221Z,55.54
2019-05-15T10:23:29.419Z,55.38
2019-05-15T10:24:29.204Z,53.96
2019-05-15T10:25:29.218Z,55.75
2019-05-15T10:26:29.183Z,53.25
2019-05-15T10:27:29.186Z,52.66
2019-05-15T10:28:29.553Z,51.83
2019-05-15T10:29:29.151Z,55.95
2019-05-15T10:30:29.161Z,52.31
2019-05-15T10:31:29.134Z,53.63
2019-05-15T10:32:29.258Z,56.40
2019-05-15T10:33:29.706Z,57.02
2019-05-15T10:34:29.089Z,52.63
2019-05-15T10:35:31.687Z,53.57
2019-05-15T10:36:29.092Z,52.01
2019-05-15T10:37:29.060Z,57.88
2019-05-15T10:38:29.046Z,60.94
2019-05-15T10:39:29.048Z,57.38
2019-05-15T10:40:29.774Z,57.45
2019-05-15T10:41:29.008Z,57.05
2019-05-15T10:42:29.168Z,55.86
2019-05-15T10:43:29.007Z,57.54
2019-05-15T10:44:28.991Z,53.41
2019-05-15T10:45:29.643Z,50.22
2019-05-15T10:46:28.974Z,53.58
2019-05-15T10:47:29.610Z,52.71
2019-05-15T10:48:29.485Z,52.37
2019-05-15T10:49:28.926Z,54.42
2019-05-15T10:50:28.910Z,54.07
2019-05-15T10:51:28.916Z,65.90
2019-05-15T10:52:28.887Z,53.99
2019-05-15T10:53:29.711Z,56.41
2019-05-15T10:54:29.362Z,53.37
2019-05-15T10:55:28.971Z,48.69
2019-05-15T10:56:29.288Z,49.19
2019-05-15T10:57:28.830Z,49.87
2019-05-15T10:58:28.821Z,53.38
2019-05-15T10:59:28.810Z,52.84
2019-05-15T11:00:28.807Z,52.54
2019-05-15T11:01:28.800Z,52.57
2019-05-15T11:02:29.078Z,53.76
2019-05-15T11:03:29.780Z,55.30
2019-05-15T11:04:28.967Z,55.54
2019-05-15T11:05:40.716Z,52.57
2019-05-15T11:06:29.740Z,51.83
2019-05-15T11:07:28.719Z,55.02
2019-05-15T11:08:29.140Z,52.03
2019-05-15T11:09:28.812Z,51.37
2019-05-15T11:10:29.058Z,53.47
2019-05-15T11:11:28.678Z,52.85
2019-05-15T11:12:29.293Z,51.76
2019-05-15T11:13:28.911Z,55.32
2019-05-15T11:14:28.840Z,51.97
2019-05-15T11:15:29.120Z,56.94
2019-05-15T11:16:28.624Z,55.29
2019-05-15T11:17:31.364Z,52.14
2019-05-15T11:18:30.749Z,53.80
2019-05-15T11:19:35.584Z,56.17
2019-05-15T11:20:29.571Z,53.56
2019-05-15T11:21:28.561Z,57.19
2019-05-15T11:22:29.822Z,54.26
2019-05-15T11:23:29.339Z,55.33
2019-05-15T11:24:32.207Z,53.33
2019-05-15T11:25:30.152Z,51.47
2019-05-15T11:26:33.079Z,52.07
2019-05-15T11:27:31.311Z,54.93
2019-05-15T11:28:31.873Z,54.57
2019-05-15T11:29:28.476Z,54.85
2019-05-15T11:30:28.465Z,52.66
2019-05-15T11:31:28.769Z,57.99
2019-05-15T11:32:29.357Z,58.90
2019-05-15T11:33:29.272Z,55.23
2019-05-15T11:34:29.073Z,53.65
2019-05-15T11:35:28.634Z,54.21
2019-05-15T11:36:28.879Z,56.85
2019-05-15T11:37:28.460Z,55.11
2019-05-15T11:38:29.094Z,53.94
2019-05-15T11:39:28.881Z,54.41
2019-05-15T11:40:28.517Z,57.36
2019-05-15T11:41:29.558Z,58.44
2019-05-15T11:42:28.969Z,58.49
2019-05-15T11:43:29.237Z,56.24
2019-05-15T11:44:28.447Z,53.07
2019-05-15T11:45:29.090Z,56.93
2019-05-15T11:46:29.108Z,55.11
2019-05-15T11:47:28.269Z,53.64
2019-05-15T11:48:29.874Z,50.09
2019-05-15T11:49:28.997Z,51.09
2019-05-15T11:50:29.299Z,54.67
2019-05-15T11:51:29.018Z,54.85
2019-05-15T11:52:29.430Z,56.18
2019-05-15T11:53:28.553Z,56.34
2019-05-15T11:54:28.439Z,54.89
2019-05-15T11:55:29.135Z,48.60
2019-05-15T11:56:29.584Z,50.19
2019-05-15T11:57:41.804Z,54.06
2019-05-15T11:58:29.154Z,50.03
2019-05-15T11:59:30.106Z,52.43
2019-05-15T12:00:30.344Z,52.35
2019-05-15T12:01:28.730Z,55.44
2019-05-15T12:02:29.367Z,53.56
2019-05-15T12:03:29.067Z,51.08
2019-05-15T12:04:33.800Z,51.52
2019-05-15T12:05:29.072Z,53.99
2019-05-15T12:06:29.271Z,57.14
2019-05-15T12:07:29.043Z,56.68
2019-05-15T12:08:29.391Z,59.31
2019-05-15T12:09:28.307Z,54.82
2019-05-15T12:10:28.927Z,56.61
2019-05-15T12:11:36.163Z,50.86
2019-05-15T12:12:31.879Z,52.22
2019-05-15T12:13:28.112Z,57.98
2019-05-15T12:14:29.679Z,56.82
2019-05-15T12:15:28.107Z,56.60
2019-05-15T12:16:29.037Z,56.93
2019-05-15T12:17:28.578Z,54.26
2019-05-15T12:18:28.465Z,57.86
2019-05-15T12:19:29.155Z,52.90
2019-05-15T12:20:28.523Z,55.86
2019-05-15T12:21:28.560Z,56.68
2019-05-15T12:22:28.957Z,50.24
2019-05-15T12:23:29.098Z,51.22
2019-05-15T12:24:32.824Z,51.82
2019-05-15T12:25:31.762Z,53.46
2019-05-15T12:26:29.189Z,56.67
2019-05-15T12:27:28.345Z,53.47
2019-05-15T12:28:29.605Z,52.97
2019-05-15T12:29:28.533Z,53.56
2019-05-15T12:30:29.598Z,54.12
2019-05-15T12:31:27.775Z,51.21
2019-05-15T12:33:29.146Z,53.85
2019-05-15T12:34:28.933Z,57.56
2019-05-15T12:35:29.552Z,57.11
2019-05-15T12:37:28.714Z,61.17
2019-05-15T12:38:28.865Z,54.89
2019-05-15T12:39:30.417Z,55.67
2019-05-15T13:00:29.796Z,54.58
2019-05-15T13:01:29.411Z,56.27
2019-05-15T13:02:28.106Z,57.04
2019-05-15T13:03:28.916Z,57.16
2019-05-15T13:04:28.450Z,55.39
2019-05-15T13:05:29.059Z,50.85
2019-05-15T13:06:28.500Z,54.65
2019-05-15T13:07:28.577Z,52.37
2019-05-15T13:08:29.104Z,57.19
2019-05-15T13:09:27.771Z,52.81
2019-05-15T13:10:28.746Z,52.70
2019-05-15T13:11:28.426Z,55.30
2019-05-15T13:12:28.801Z,57.88
2019-05-15T13:13:28.354Z,53.13
2019-05-15T13:14:28.372Z,49.69